createdAt,value
2018-12-24T00:00:12.202Z,1011.67
2018-12-24T00:01:12.212Z,1011.76
2018-12-24T00:02:12.222Z,1011.74
2018-12-24T00:03:12.234Z,1011.80
2018-12-24T00:04:12.248Z,1011.82
2018-12-24T00:05:12.266Z,1011.82
2018-12-24T00:06:12.274Z,1011.89
2018-12-24T00:07:12.280Z,1011.90
2018-12-24T00:08:12.290Z,1011.93
2018-12-24T00:09:12.305Z,1011.94
2018-12-24T00:10:12.316Z,1011.95
2018-12-24T00:11:12.333Z,1011.89
2018-12-24T00:12:12.345Z,1011.88
2018-12-24T00:13:12.351Z,1011.88
2018-12-24T00:14:12.364Z,1011.93
2018-12-24T00:15:12.379Z,1011.98
2018-12-24T00:16:12.384Z,1012.08
2018-12-24T00:17:12.402Z,1012.06
2018-12-24T00:18:12.413Z,1012.10
2018-12-24T00:19:12.424Z,1012.10
2018-12-24T00:20:12.435Z,1012.11
2018-12-24T00:21:12.445Z,1012.15
2018-12-24T00:22:12.456Z,1012.16
2018-12-24T00:23:12.470Z,1012.14
2018-12-24T00:24:12.479Z,1012.16
2018-12-24T00:25:12.488Z,1012.22
2018-12-24T00:26:12.506Z,1012.25
2018-12-24T00:27:12.519Z,1012.28
2018-12-24T00:28:12.526Z,1012.32
2018-12-24T00:29:12.536Z,1012.29
2018-12-24T00:30:12.552Z,1012.30
2018-12-24T00:31:12.560Z,1012.26
2018-12-24T00:32:12.582Z,1012.26
2018-12-24T00:33:12.585Z,1012.25
2018-12-24T00:34:12.596Z,1012.28
2018-12-24T00:35:12.609Z,1012.32
2018-12-24T00:36:12.614Z,1012.34
2018-12-24T00:37:12.635Z,1012.39
2018-12-24T00:38:12.642Z,1012.45
2018-12-24T00:39:12.652Z,1012.48
2018-12-24T00:40:12.662Z,1012.50
2018-12-24T00:41:12.675Z,1012.54
2018-12-24T00:42:15.972Z,1012.60
2018-12-24T00:43:12.691Z,1012.60
2018-12-24T00:44:12.714Z,1012.62
2018-12-24T00:45:12.725Z,1012.65
2018-12-24T00:46:12.733Z,1012.68
2018-12-24T00:47:12.744Z,1012.70
2018-12-24T00:48:12.761Z,1012.69
2018-12-24T00:49:12.768Z,1012.72
2018-12-24T00:50:12.784Z,1012.80
2018-12-24T00:51:12.802Z,1012.84
2018-12-24T00:52:12.809Z,1012.89
2018-12-24T00:53:12.826Z,1012.97
2018-12-24T00:54:12.828Z,1012.90
2018-12-24T00:55:12.849Z,1012.95
2018-12-24T00:56:12.857Z,1013.01
2018-12-24T00:57:12.857Z,1012.97
2018-12-24T00:58:12.873Z,1012.97
2018-12-24T00:59:12.888Z,1013.08
2018-12-24T01:00:12.904Z,1013.11
2018-12-24T01:01:12.902Z,1013.07
2018-12-24T01:02:12.917Z,1013.12
2018-12-24T01:03:12.931Z,1013.16
2018-12-24T01:04:12.942Z,1013.26
2018-12-24T01:05:12.950Z,1013.28
2018-12-24T01:06:12.965Z,1013.34
2018-12-24T01:07:12.974Z,1013.35
2018-12-24T01:08:12.988Z,1013.35
2018-12-24T01:09:12.994Z,1013.31
2018-12-24T01:10:13.006Z,1013.30
2018-12-24T01:11:13.015Z,1013.37
2018-12-24T01:12:13.028Z,1013.44
2018-12-24T01:13:13.044Z,1013.51
2018-12-24T01:14:13.058Z,1013.54
2018-12-24T01:15:13.067Z,1013.55
2018-12-24T01:16:13.076Z,1013.57
2018-12-24T01:17:13.085Z,1013.60
2018-12-24T01:18:13.096Z,1013.59
2018-12-24T01:19:13.107Z,1013.67
2018-12-24T01:20:13.120Z,1013.77
2018-12-24T01:21:13.129Z,1013.82
2018-12-24T01:22:13.146Z,1013.92
2018-12-24T01:23:13.152Z,1013.89
2018-12-24T01:24:13.160Z,1013.90
2018-12-24T01:25:13.179Z,1013.89
2018-12-24T01:26:13.188Z,1013.97
2018-12-24T01:27:13.199Z,1013.99
2018-12-24T01:28:13.211Z,1013.97
2018-12-24T01:29:13.219Z,1013.98
2018-12-24T01:30:13.219Z,1014.06
2018-12-24T01:31:13.238Z,1014.14
2018-12-24T01:32:13.273Z,1014.22
2018-12-24T01:33:13.268Z,1014.20
2018-12-24T01:34:13.824Z,1014.25
2018-12-24T01:35:13.292Z,1014.29
2018-12-24T01:36:13.308Z,1014.23
2018-12-24T01:37:13.310Z,1014.28
2018-12-24T01:38:13.466Z,1014.39
2018-12-24T01:39:13.337Z,1014.39
2018-12-24T01:40:13.823Z,1014.44
2018-12-24T01:41:13.362Z,1014.44
2018-12-24T01:42:13.372Z,1014.45
2018-12-24T01:43:13.380Z,1014.48
2018-12-24T01:44:13.556Z,1014.49
2018-12-24T01:45:13.396Z,1014.58
2018-12-24T01:46:13.407Z,1014.58
2018-12-24T01:47:13.424Z,1014.59
2018-12-24T01:48:13.444Z,1014.58
2018-12-24T01:49:13.451Z,1014.65
2018-12-24T01:50:13.468Z,1014.75
2018-12-24T01:51:13.466Z,1014.73
2018-12-24T01:52:13.494Z,1014.80
2018-12-24T01:53:13.486Z,1014.79
2018-12-24T01:54:13.512Z,1014.71
2018-12-24T01:55:13.512Z,1014.77
2018-12-24T01:56:13.526Z,1014.78
2018-12-24T01:57:13.532Z,1014.75
2018-12-24T01:58:13.550Z,1014.77
2018-12-24T01:59:13.554Z,1014.80
2018-12-24T02:00:13.568Z,1014.81
2018-12-24T02:01:13.576Z,1014.86
2018-12-24T02:02:13.589Z,1014.87
2018-12-24T02:03:13.601Z,1014.85
2018-12-24T02:04:13.611Z,1014.95
2018-12-24T02:05:13.620Z,1014.90
2018-12-24T02:06:13.641Z,1014.92
2018-12-24T02:07:13.643Z,1014.96
2018-12-24T02:08:13.659Z,1014.98
2018-12-24T02:09:13.671Z,1015.07
2018-12-24T02:10:13.679Z,1015.08
2018-12-24T02:11:13.688Z,1015.12
2018-12-24T02:12:13.701Z,1015.11
2018-12-24T02:13:13.708Z,1015.14
2018-12-24T02:14:13.728Z,1015.18
2018-12-24T02:15:13.728Z,1015.23
2018-12-24T02:16:13.745Z,1015.24
2018-12-24T02:17:13.753Z,1015.22
2018-12-24T02:18:13.765Z,1015.23
2018-12-24T02:19:13.781Z,1015.22
2018-12-24T02:20:13.787Z,1015.27
2018-12-24T02:21:13.795Z,1015.26
2018-12-24T02:22:13.815Z,1015.26
2018-12-24T02:23:13.823Z,1015.32
2018-12-24T02:24:13.834Z,1015.27
2018-12-24T02:25:13.846Z,1015.28
2018-12-24T02:26:13.854Z,1015.24
2018-12-24T02:27:13.865Z,1015.33
2018-12-24T02:28:13.879Z,1015.36
2018-12-24T02:29:13.891Z,1015.33
2018-12-24T02:30:14.070Z,1015.37
2018-12-24T02:31:13.913Z,1015.43
2018-12-24T02:32:13.920Z,1015.43
2018-12-24T02:33:13.938Z,1015.37
2018-12-24T02:34:13.943Z,1015.47
2018-12-24T02:35:13.950Z,1015.43
2018-12-24T02:36:13.965Z,1015.54
2018-12-24T02:37:13.981Z,1015.54
2018-12-24T02:38:13.992Z,1015.50
2018-12-24T02:39:14.001Z,1015.48
2018-12-24T02:40:14.012Z,1015.60
2018-12-24T02:41:14.021Z,1015.55
2018-12-24T02:42:14.034Z,1015.60
2018-12-24T02:43:14.045Z,1015.63
2018-12-24T02:44:14.054Z,1015.60
2018-12-24T02:45:14.069Z,1015.61
2018-12-24T02:46:14.078Z,1015.63
2018-12-24T02:47:14.100Z,1015.64
2018-12-24T02:48:14.104Z,1015.61
2018-12-24T02:49:14.111Z,1015.64
2018-12-24T02:50:14.118Z,1015.67
2018-12-24T02:51:14.133Z,1015.72
2018-12-24T02:52:14.141Z,1015.71
2018-12-24T02:53:14.156Z,1015.67
2018-12-24T02:54:14.163Z,1015.75
2018-12-24T02:55:14.177Z,1015.74
2018-12-24T02:56:14.188Z,1015.75
2018-12-24T02:57:14.198Z,1015.77
2018-12-24T02:58:14.213Z,1015.83
2018-12-24T02:59:14.224Z,1015.92
2018-12-24T03:00:14.236Z,1015.92
2018-12-24T03:01:14.243Z,1015.94
2018-12-24T03:02:14.255Z,1015.97
2018-12-24T03:03:14.265Z,1015.98
2018-12-24T03:04:14.286Z,1016.02
2018-12-24T03:05:14.299Z,1016.08
2018-12-24T03:06:14.300Z,1016.03
2018-12-24T03:07:14.310Z,1016.04
2018-12-24T03:08:14.323Z,1016.09
2018-12-24T03:09:14.336Z,1016.09
2018-12-24T03:10:14.354Z,1016.07
2018-12-24T03:11:14.359Z,1016.10
2018-12-24T03:12:14.365Z,1016.12
2018-12-24T03:13:14.377Z,1016.14
2018-12-24T03:14:14.397Z,1016.12
2018-12-24T03:15:14.440Z,1016.13
2018-12-24T03:16:14.413Z,1016.20
2018-12-24T03:17:14.421Z,1016.26
2018-12-24T03:18:14.437Z,1016.22
2018-12-24T03:19:14.441Z,1016.27
2018-12-24T03:20:14.464Z,1016.16
2018-12-24T03:21:14.468Z,1016.21
2018-12-24T03:22:14.478Z,1016.20
2018-12-24T03:23:14.495Z,1016.31
2018-12-24T03:24:14.509Z,1016.31
2018-12-24T03:25:14.524Z,1016.34
2018-12-24T03:26:14.527Z,1016.40
2018-12-24T03:27:14.531Z,1016.39
2018-12-24T03:28:14.541Z,1016.45
2018-12-24T03:29:14.568Z,1016.45
2018-12-24T03:30:14.569Z,1016.49
2018-12-24T03:31:14.586Z,1016.48
2018-12-24T03:32:14.592Z,1016.47
2018-12-24T03:33:14.611Z,1016.48
2018-12-24T03:34:14.607Z,1016.54
2018-12-24T03:35:14.619Z,1016.52
2018-12-24T03:36:14.631Z,1016.62
2018-12-24T03:37:14.645Z,1016.55
2018-12-24T03:38:14.656Z,1016.56
2018-12-24T03:39:14.669Z,1016.54
2018-12-24T03:40:14.676Z,1016.56
2018-12-24T03:41:14.684Z,1016.63
2018-12-24T03:42:14.704Z,1016.61
2018-12-24T03:43:14.709Z,1016.63
2018-12-24T03:44:14.726Z,1016.63
2018-12-24T03:45:14.739Z,1016.68
2018-12-24T03:46:14.747Z,1016.67
2018-12-24T03:47:14.764Z,1016.70
2018-12-24T03:48:14.767Z,1016.76
2018-12-24T03:49:14.773Z,1016.75
2018-12-24T03:50:14.788Z,1016.72
2018-12-24T03:51:14.801Z,1016.73
2018-12-24T03:52:14.811Z,1016.75
2018-12-24T03:53:14.824Z,1016.78
2018-12-24T03:54:14.834Z,1016.70
2018-12-24T03:55:14.845Z,1016.73
2018-12-24T03:56:14.859Z,1016.75
2018-12-24T03:57:14.880Z,1016.73
2018-12-24T03:58:14.882Z,1016.78
2018-12-24T03:59:14.891Z,1016.81
2018-12-24T04:00:14.902Z,1016.84
2018-12-24T04:01:14.917Z,1016.84
2018-12-24T04:02:14.920Z,1016.88
2018-12-24T04:03:14.944Z,1016.89
2018-12-24T04:04:14.940Z,1016.97
2018-12-24T04:05:14.995Z,1016.91
2018-12-24T04:06:14.970Z,1016.96
2018-12-24T04:07:14.980Z,1016.96
2018-12-24T04:08:14.989Z,1016.92
2018-12-24T04:09:15.000Z,1016.98
2018-12-24T04:10:15.017Z,1017.02
2018-12-24T04:11:15.026Z,1017.02
2018-12-24T04:12:15.039Z,1017.07
2018-12-24T04:13:22.301Z,1017.10
2018-12-24T04:14:15.061Z,1017.11
2018-12-24T04:15:15.077Z,1017.14
2018-12-24T04:16:15.078Z,1017.13
2018-12-24T04:17:15.092Z,1017.18
2018-12-24T04:18:15.099Z,1017.18
2018-12-24T04:19:15.134Z,1017.25
2018-12-24T04:20:15.122Z,1017.27
2018-12-24T04:21:15.134Z,1017.34
2018-12-24T04:22:15.148Z,1017.31
2018-12-24T04:23:15.158Z,1017.37
2018-12-24T04:24:15.168Z,1017.43
2018-12-24T04:25:15.178Z,1017.39
2018-12-24T04:26:15.188Z,1017.43
2018-12-24T04:27:15.198Z,1017.48
2018-12-24T04:28:15.213Z,1017.49
2018-12-24T04:29:15.234Z,1017.47
2018-12-24T04:30:15.244Z,1017.46
2018-12-24T04:31:15.248Z,1017.39
2018-12-24T04:32:15.252Z,1017.47
2018-12-24T04:33:15.266Z,1017.43
2018-12-24T04:34:15.282Z,1017.49
2018-12-24T04:35:15.288Z,1017.48
2018-12-24T04:36:15.299Z,1017.49
2018-12-24T04:37:15.320Z,1017.52
2018-12-24T04:38:15.320Z,1017.56
2018-12-24T04:39:15.331Z,1017.52
2018-12-24T04:40:15.344Z,1017.57
2018-12-24T04:41:15.353Z,1017.58
2018-12-24T04:42:15.373Z,1017.59
2018-12-24T04:43:15.397Z,1017.58
2018-12-24T04:44:15.383Z,1017.66
2018-12-24T04:45:15.398Z,1017.65
2018-12-24T04:46:15.420Z,1017.65
2018-12-24T04:47:15.428Z,1017.67
2018-12-24T04:48:15.547Z,1017.75
2018-12-24T04:49:15.448Z,1017.71
2018-12-24T04:50:15.459Z,1017.73
2018-12-24T04:51:15.472Z,1017.80
2018-12-24T04:52:15.492Z,1017.79
2018-12-24T04:53:15.492Z,1017.85
2018-12-24T04:54:15.496Z,1017.82
2018-12-24T04:55:15.517Z,1017.86
2018-12-24T04:56:15.540Z,1017.84
2018-12-24T04:57:15.536Z,1017.81
2018-12-24T04:58:15.552Z,1017.88
2018-12-24T04:59:15.555Z,1017.91
2018-12-24T05:00:15.580Z,1017.93
2018-12-24T05:01:15.584Z,1018.02
2018-12-24T05:02:15.596Z,1018.04
2018-12-24T05:03:15.612Z,1018.08
2018-12-24T05:04:15.622Z,1018.09
2018-12-24T05:05:15.620Z,1018.13
2018-12-24T05:06:15.635Z,1018.09
2018-12-24T05:07:15.644Z,1018.17
2018-12-24T05:08:15.660Z,1018.25
2018-12-24T05:09:15.668Z,1018.24
2018-12-24T05:10:15.680Z,1018.27
2018-12-24T05:11:15.692Z,1018.30
2018-12-24T05:12:15.704Z,1018.36
2018-12-24T05:13:15.712Z,1018.39
2018-12-24T05:14:15.724Z,1018.45
2018-12-24T05:15:15.732Z,1018.55
2018-12-24T05:16:15.751Z,1018.56
2018-12-24T05:17:15.752Z,1018.57
2018-12-24T05:18:15.768Z,1018.58
2018-12-24T05:19:15.789Z,1018.59
2018-12-24T05:20:15.792Z,1018.63
2018-12-24T05:21:15.802Z,1018.71
2018-12-24T05:22:15.812Z,1018.69
2018-12-24T05:23:15.822Z,1018.70
2018-12-24T05:24:15.832Z,1018.81
2018-12-24T05:25:15.848Z,1018.79
2018-12-24T05:26:15.857Z,1018.80
2018-12-24T05:27:15.866Z,1018.83
2018-12-24T05:28:15.878Z,1018.87
2018-12-24T05:29:15.890Z,1018.85
2018-12-24T05:30:15.905Z,1018.94
2018-12-24T05:31:15.918Z,1018.95
2018-12-24T05:32:15.922Z,1019.02
2018-12-24T05:33:15.934Z,1019.04
2018-12-24T05:34:15.945Z,1019.05
2018-12-24T05:35:15.960Z,1019.05
2018-12-24T05:36:15.967Z,1019.09
2018-12-24T05:37:15.977Z,1019.09
2018-12-24T05:38:15.987Z,1019.12
2018-12-24T05:39:16.007Z,1019.18
2018-12-24T05:40:16.036Z,1019.17
2018-12-24T05:41:16.027Z,1019.17
2018-12-24T05:42:16.035Z,1019.14
2018-12-24T05:43:16.043Z,1019.18
2018-12-24T05:44:16.053Z,1019.15
2018-12-24T05:45:16.068Z,1019.25
2018-12-24T05:46:16.086Z,1019.26
2018-12-24T05:47:16.091Z,1019.27
2018-12-24T05:48:16.098Z,1019.29
2018-12-24T05:49:16.115Z,1019.32
2018-12-24T05:50:16.126Z,1019.34
2018-12-24T05:51:16.135Z,1019.38
2018-12-24T05:52:16.144Z,1019.38
2018-12-24T05:53:16.166Z,1019.35
2018-12-24T05:54:16.165Z,1019.33
2018-12-24T05:55:16.187Z,1019.42
2018-12-24T05:56:16.190Z,1019.45
2018-12-24T05:57:16.203Z,1019.45
2018-12-24T05:58:16.215Z,1019.48
2018-12-24T05:59:16.220Z,1019.51
2018-12-24T06:00:16.232Z,1019.57
2018-12-24T06:01:16.242Z,1019.60
2018-12-24T06:02:16.260Z,1019.58
2018-12-24T06:03:16.274Z,1019.67
2018-12-24T06:04:16.280Z,1019.62
2018-12-24T06:05:16.292Z,1019.67
2018-12-24T06:06:16.306Z,1019.68
2018-12-24T06:07:16.320Z,1019.76
2018-12-24T06:08:16.323Z,1019.75
2018-12-24T06:09:16.334Z,1019.84
2018-12-24T06:10:16.347Z,1019.83
2018-12-24T06:11:16.361Z,1019.82
2018-12-24T06:12:16.367Z,1019.86
2018-12-24T06:13:16.379Z,1019.85
2018-12-24T06:14:16.394Z,1019.88
2018-12-24T06:15:16.399Z,1019.89
2018-12-24T06:16:16.415Z,1019.82
2018-12-24T06:17:16.425Z,1019.92
2018-12-24T06:18:16.435Z,1019.98
2018-12-24T06:19:16.449Z,1020.01
2018-12-24T06:20:16.457Z,1020.01
2018-12-24T06:21:16.469Z,1020.06
2018-12-24T06:22:16.481Z,1020.11
2018-12-24T06:23:16.491Z,1020.07
2018-12-24T06:24:16.505Z,1020.14
2018-12-24T06:25:16.516Z,1020.17
2018-12-24T06:26:16.526Z,1020.26
2018-12-24T06:27:16.540Z,1020.29
2018-12-24T06:28:16.545Z,1020.30
2018-12-24T06:29:16.559Z,1020.38
2018-12-24T06:30:16.571Z,1020.33
2018-12-24T06:31:16.583Z,1020.32
2018-12-24T06:32:16.595Z,1020.40
2018-12-24T06:33:16.601Z,1020.43
2018-12-24T06:34:16.623Z,1020.47
2018-12-24T06:35:16.623Z,1020.55
2018-12-24T06:36:16.639Z,1020.51
2018-12-24T06:37:16.649Z,1020.58
2018-12-24T06:38:16.663Z,1020.63
2018-12-24T06:39:16.671Z,1020.67
2018-12-24T06:40:16.682Z,1020.70
2018-12-24T06:41:16.692Z,1020.70
2018-12-24T06:42:18.190Z,1020.71
2018-12-24T06:43:16.716Z,1020.73
2018-12-24T06:44:16.724Z,1020.78
2018-12-24T06:45:16.749Z,1020.78
2018-12-24T06:46:16.758Z,1020.76
2018-12-24T06:47:16.758Z,1020.75
2018-12-24T06:48:16.770Z,1020.73
2018-12-24T06:49:16.775Z,1020.80
2018-12-24T06:50:16.794Z,1020.75
2018-12-24T06:51:16.806Z,1020.83
2018-12-24T06:52:16.816Z,1020.86
2018-12-24T06:53:16.832Z,1020.86
2018-12-24T06:54:16.844Z,1020.83
2018-12-24T06:55:16.854Z,1020.83
2018-12-24T06:56:16.858Z,1020.85
2018-12-24T06:57:16.872Z,1020.91
2018-12-24T06:58:16.887Z,1020.87
2018-12-24T06:59:16.899Z,1020.90
2018-12-24T07:00:16.904Z,1020.94
2018-12-24T07:01:16.918Z,1020.92
2018-12-24T07:02:16.934Z,1020.87
2018-12-24T07:03:16.944Z,1020.92
2018-12-24T07:04:16.956Z,1020.92
2018-12-24T07:05:16.975Z,1021.00
2018-12-24T07:06:16.974Z,1021.02
2018-12-24T07:07:16.971Z,1021.01
2018-12-24T07:08:17.001Z,1020.98
2018-12-24T07:09:17.113Z,1020.99
2018-12-24T07:10:17.019Z,1021.00
2018-12-24T07:11:17.040Z,1021.03
2018-12-24T07:12:17.041Z,1021.07
2018-12-24T07:13:17.053Z,1021.08
2018-12-24T07:14:17.061Z,1021.11
2018-12-24T07:15:17.180Z,1021.16
2018-12-24T07:16:17.085Z,1021.17
2018-12-24T07:17:17.108Z,1021.17
2018-12-24T07:18:17.114Z,1021.22
2018-12-24T07:19:17.181Z,1021.23
2018-12-24T07:20:17.128Z,1021.27
2018-12-24T07:21:17.145Z,1021.23
2018-12-24T07:22:17.151Z,1021.36
2018-12-24T07:23:17.868Z,1021.29
2018-12-24T07:24:17.177Z,1021.29
2018-12-24T07:25:17.189Z,1021.30
2018-12-24T07:26:17.201Z,1021.29
2018-12-24T07:27:17.205Z,1021.32
2018-12-24T07:28:17.224Z,1021.35
2018-12-24T07:29:17.241Z,1021.39
2018-12-24T07:30:17.243Z,1021.34
2018-12-24T07:31:17.950Z,1021.39
2018-12-24T07:32:17.267Z,1021.41
2018-12-24T07:33:17.280Z,1021.42
2018-12-24T07:34:17.288Z,1021.49
2018-12-24T07:35:17.306Z,1021.45
2018-12-24T07:36:17.313Z,1021.50
2018-12-24T07:37:17.324Z,1021.51
2018-12-24T07:38:17.339Z,1021.54
2018-12-24T07:39:17.343Z,1021.58
2018-12-24T07:40:17.359Z,1021.62
2018-12-24T07:41:17.369Z,1021.65
2018-12-24T07:42:17.383Z,1021.63
2018-12-24T07:43:17.391Z,1021.66
2018-12-24T07:44:24.192Z,1021.68
2018-12-24T07:45:17.415Z,1021.70
2018-12-24T07:46:17.425Z,1021.73
2018-12-24T07:47:17.439Z,1021.77
2018-12-24T07:48:17.449Z,1021.81
2018-12-24T07:49:17.459Z,1021.73
2018-12-24T07:50:17.474Z,1021.73
2018-12-24T07:51:17.483Z,1021.74
2018-12-24T07:52:17.574Z,1021.77
2018-12-24T07:53:17.503Z,1021.75
2018-12-24T07:54:18.372Z,1021.75
2018-12-24T07:55:17.529Z,1021.72
2018-12-24T07:56:17.635Z,1021.80
2018-12-24T07:57:17.551Z,1021.75
2018-12-24T07:58:17.567Z,1021.74
2018-12-24T07:59:17.572Z,1021.80
2018-12-24T08:00:17.588Z,1021.80
2018-12-24T08:01:17.598Z,1021.80
2018-12-24T08:02:17.611Z,1021.85
2018-12-24T08:03:17.623Z,1021.81
2018-12-24T08:04:17.641Z,1021.86
2018-12-24T08:05:17.643Z,1021.98
2018-12-24T08:06:17.651Z,1021.94
2018-12-24T08:07:17.670Z,1021.95
2018-12-24T08:08:17.679Z,1021.93
2018-12-24T08:09:17.687Z,1021.96
2018-12-24T08:10:17.693Z,1021.95
2018-12-24T08:11:17.713Z,1021.95
2018-12-24T08:12:17.719Z,1021.99
2018-12-24T08:13:17.733Z,1021.93
2018-12-24T08:14:17.747Z,1021.96
2018-12-24T08:15:17.759Z,1022.00
2018-12-24T08:16:17.771Z,1022.03
2018-12-24T08:17:17.781Z,1022.02
2018-12-24T08:18:17.791Z,1022.09
2018-12-24T08:19:17.801Z,1022.10
2018-12-24T08:20:17.819Z,1022.14
2018-12-24T08:21:17.823Z,1022.16
2018-12-24T08:22:17.837Z,1022.14
2018-12-24T08:23:17.848Z,1022.15
2018-12-24T08:24:17.859Z,1022.13
2018-12-24T08:25:17.869Z,1022.16
2018-12-24T08:26:17.885Z,1022.20
2018-12-24T08:27:17.891Z,1022.22
2018-12-24T08:28:17.906Z,1022.25
2018-12-24T08:29:17.914Z,1022.25
2018-12-24T08:30:17.929Z,1022.30
2018-12-24T08:31:17.939Z,1022.38
2018-12-24T08:32:17.951Z,1022.36
2018-12-24T08:33:17.964Z,1022.40
2018-12-24T08:34:17.971Z,1022.44
2018-12-24T08:35:17.981Z,1022.43
2018-12-24T08:36:17.993Z,1022.46
2018-12-24T08:37:18.007Z,1022.45
2018-12-24T08:38:18.021Z,1022.52
2018-12-24T08:39:18.029Z,1022.52
2018-12-24T08:40:18.039Z,1022.53
2018-12-24T08:41:18.056Z,1022.59
2018-12-24T08:42:18.063Z,1022.63
2018-12-24T08:43:18.074Z,1022.66
2018-12-24T08:44:18.088Z,1022.66
2018-12-24T08:45:18.100Z,1022.73
2018-12-24T08:46:18.107Z,1022.72
2018-12-24T08:47:18.123Z,1022.77
2018-12-24T08:48:18.127Z,1022.81
2018-12-24T08:49:18.143Z,1022.86
2018-12-24T08:50:18.153Z,1022.88
2018-12-24T08:51:18.171Z,1022.93
2018-12-24T08:52:18.179Z,1022.94
2018-12-24T08:53:18.188Z,1022.92
2018-12-24T08:54:18.197Z,1023.00
2018-12-24T08:55:18.207Z,1023.04
2018-12-24T08:56:18.222Z,1023.11
2018-12-24T08:57:18.237Z,1023.13
2018-12-24T08:58:18.243Z,1023.11
2018-12-24T08:59:18.258Z,1023.17
2018-12-24T09:00:18.272Z,1023.20
2018-12-24T09:01:18.277Z,1023.25
2018-12-24T09:02:18.296Z,1023.27
2018-12-24T09:03:18.299Z,1023.26
2018-12-24T09:04:18.315Z,1023.28
2018-12-24T09:05:18.324Z,1023.32
2018-12-24T09:06:18.337Z,1023.31
2018-12-24T09:07:18.348Z,1023.29
2018-12-24T09:08:18.363Z,1023.30
2018-12-24T09:09:19.090Z,1023.37
2018-12-24T09:10:18.386Z,1023.37
2018-12-24T09:11:18.389Z,1023.42
2018-12-24T09:12:18.411Z,1023.42
2018-12-24T09:13:18.419Z,1023.48
2018-12-24T09:14:18.432Z,1023.47
2018-12-24T09:15:18.440Z,1023.48
2018-12-24T09:16:18.454Z,1023.53
2018-12-24T09:17:18.459Z,1023.56
2018-12-24T09:18:18.476Z,1023.57
2018-12-24T09:19:18.483Z,1023.58
2018-12-24T09:20:18.495Z,1023.61
2018-12-24T09:21:18.508Z,1023.66
2018-12-24T09:22:18.521Z,1023.70
2018-12-24T09:23:18.532Z,1023.78
2018-12-24T09:24:18.546Z,1023.78
2018-12-24T09:25:18.553Z,1023.80
2018-12-24T09:26:18.565Z,1023.81
2018-12-24T09:27:18.577Z,1023.88
2018-12-24T09:28:18.588Z,1023.90
2018-12-24T09:29:18.596Z,1023.87
2018-12-24T09:30:18.616Z,1023.82
2018-12-24T09:31:18.625Z,1023.88
2018-12-24T09:32:18.640Z,1023.89
2018-12-24T09:33:18.650Z,1023.96
2018-12-24T09:34:18.659Z,1023.97
2018-12-24T09:35:18.668Z,1024.04
2018-12-24T09:36:18.682Z,1024.06
2018-12-24T09:37:18.693Z,1024.09
2018-12-24T09:38:18.707Z,1024.12
2018-12-24T09:39:18.716Z,1024.16
2018-12-24T09:40:18.729Z,1024.20
2018-12-24T09:41:18.742Z,1024.18
2018-12-24T09:42:18.755Z,1024.22
2018-12-24T09:43:18.760Z,1024.25
2018-12-24T09:44:18.773Z,1024.27
2018-12-24T09:45:18.784Z,1024.32
2018-12-24T09:46:18.795Z,1024.38
2018-12-24T09:47:18.807Z,1024.37
2018-12-24T09:48:18.816Z,1024.42
2018-12-24T09:49:18.830Z,1024.44
2018-12-24T09:50:18.844Z,1024.48
2018-12-24T09:51:18.854Z,1024.45
2018-12-24T09:52:18.869Z,1024.45
2018-12-24T09:53:18.872Z,1024.50
2018-12-24T09:54:18.889Z,1024.50
2018-12-24T09:55:18.901Z,1024.50
2018-12-24T09:56:18.913Z,1024.53
2018-12-24T09:57:18.920Z,1024.58
2018-12-24T09:58:18.931Z,1024.53
2018-12-24T09:59:18.947Z,1024.57
2018-12-24T10:00:18.956Z,1024.67
2018-12-24T10:01:18.979Z,1024.61
2018-12-24T10:02:18.980Z,1024.63
2018-12-24T10:03:18.992Z,1024.62
2018-12-24T10:04:19.002Z,1024.69
2018-12-24T10:05:19.015Z,1024.69
2018-12-24T10:06:19.028Z,1024.71
2018-12-24T10:07:19.038Z,1024.68
2018-12-24T10:08:19.047Z,1024.77
2018-12-24T10:09:19.062Z,1024.72
2018-12-24T10:10:19.074Z,1024.70
2018-12-24T10:11:19.080Z,1024.70
2018-12-24T10:12:19.100Z,1024.69
2018-12-24T10:13:19.115Z,1024.72
2018-12-24T10:14:19.118Z,1024.72
2018-12-24T10:15:19.150Z,1024.72
2018-12-24T10:16:19.146Z,1024.70
2018-12-24T10:17:19.160Z,1024.72
2018-12-24T10:18:19.164Z,1024.75
2018-12-24T10:19:19.220Z,1024.73
2018-12-24T10:20:19.194Z,1024.77
2018-12-24T10:21:19.264Z,1024.78
2018-12-24T10:22:19.212Z,1024.85
2018-12-24T10:23:19.224Z,1024.85
2018-12-24T10:24:19.236Z,1024.82
2018-12-24T10:25:19.244Z,1024.88
2018-12-24T10:26:19.260Z,1024.88
2018-12-24T10:27:19.269Z,1024.93
2018-12-24T10:28:19.282Z,1024.91
2018-12-24T10:29:19.679Z,1024.94
2018-12-24T10:30:19.302Z,1024.96
2018-12-24T10:31:19.312Z,1024.99
2018-12-24T10:32:19.324Z,1024.99
2018-12-24T10:33:19.340Z,1025.04
2018-12-24T10:34:19.351Z,1025.01
2018-12-24T10:35:19.358Z,1025.02
2018-12-24T10:36:19.370Z,1025.02
2018-12-24T10:37:19.388Z,1025.08
2018-12-24T10:38:19.406Z,1024.97
2018-12-24T10:39:19.400Z,1025.03
2018-12-24T10:40:19.416Z,1024.95
2018-12-24T10:41:19.428Z,1025.00
2018-12-24T10:42:19.437Z,1025.03
2018-12-24T10:43:19.458Z,1025.02
2018-12-24T10:44:19.463Z,1025.07
2018-12-24T10:45:19.476Z,1025.02
2018-12-24T10:46:19.490Z,1025.05
2018-12-24T10:47:19.500Z,1025.09
2018-12-24T10:48:19.506Z,1025.04
2018-12-24T10:49:19.531Z,1025.09
2018-12-24T10:50:19.536Z,1025.08
2018-12-24T10:51:19.544Z,1025.13
2018-12-24T10:52:19.559Z,1025.15
2018-12-24T10:53:19.566Z,1025.11
2018-12-24T10:54:19.572Z,1025.09
2018-12-24T10:55:19.592Z,1025.15
2018-12-24T10:56:19.600Z,1025.12
2018-12-24T10:57:19.619Z,1025.17
2018-12-24T10:58:20.406Z,1025.09
2018-12-24T10:59:19.636Z,1025.15
2018-12-24T11:00:19.646Z,1025.13
2018-12-24T11:01:19.660Z,1025.11
2018-12-24T11:02:19.787Z,1025.10
2018-12-24T11:03:19.684Z,1025.09
2018-12-24T11:04:19.694Z,1025.12
2018-12-24T11:05:19.704Z,1025.06
2018-12-24T11:06:19.725Z,1025.04
2018-12-24T11:07:19.726Z,1025.10
2018-12-24T11:08:19.762Z,1025.08
2018-12-24T11:09:19.754Z,1025.12
2018-12-24T11:10:19.820Z,1025.13
2018-12-24T11:11:19.775Z,1025.07
2018-12-24T11:12:19.791Z,1025.12
2018-12-24T11:13:19.799Z,1025.06
2018-12-24T11:14:19.814Z,1025.07
2018-12-24T11:15:25.034Z,1025.11
2018-12-24T11:16:19.828Z,1025.12
2018-12-24T11:17:19.842Z,1025.08
2018-12-24T11:18:19.859Z,1025.05
2018-12-24T11:19:19.870Z,1025.06
2018-12-24T11:20:19.880Z,1025.09
2018-12-24T11:21:19.890Z,1025.09
2018-12-24T11:22:19.909Z,1025.12
2018-12-24T11:23:19.918Z,1025.11
2018-12-24T11:24:19.930Z,1025.13
2018-12-24T11:25:19.939Z,1025.14
2018-12-24T11:26:19.960Z,1025.09
2018-12-24T11:27:19.966Z,1025.08
2018-12-24T11:28:19.976Z,1025.04
2018-12-24T11:29:19.990Z,1025.06
2018-12-24T11:30:19.998Z,1025.09
2018-12-24T11:31:20.011Z,1025.04
2018-12-24T11:32:20.022Z,1025.10
2018-12-24T11:33:20.035Z,1025.06
2018-12-24T11:34:20.045Z,1025.11
2018-12-24T11:35:20.058Z,1025.10
2018-12-24T11:36:20.072Z,1025.11
2018-12-24T11:37:20.084Z,1025.09
2018-12-24T11:38:20.094Z,1025.13
2018-12-24T11:39:20.106Z,1025.13
2018-12-24T11:40:20.124Z,1025.13
2018-12-24T11:41:20.134Z,1025.14
2018-12-24T11:42:20.142Z,1025.12
2018-12-24T11:43:20.160Z,1025.15
2018-12-24T11:44:20.174Z,1025.20
2018-12-24T11:45:20.184Z,1025.21
2018-12-24T11:46:20.194Z,1025.25
2018-12-24T11:47:20.204Z,1025.28
2018-12-24T11:48:20.218Z,1025.32
2018-12-24T11:49:20.230Z,1025.30
2018-12-24T11:50:20.246Z,1025.35
2018-12-24T11:51:20.252Z,1025.36
2018-12-24T11:52:20.266Z,1025.32
2018-12-24T11:53:20.280Z,1025.31
2018-12-24T11:54:20.295Z,1025.27
2018-12-24T11:55:20.304Z,1025.31
2018-12-24T11:56:20.318Z,1025.25
2018-12-24T11:57:20.328Z,1025.29
2018-12-24T11:58:20.351Z,1025.24
2018-12-24T11:59:20.358Z,1025.23
2018-12-24T12:00:20.370Z,1025.20
2018-12-24T12:01:20.384Z,1025.23
2018-12-24T12:02:20.394Z,1025.29
2018-12-24T12:03:20.405Z,1025.26
2018-12-24T12:04:20.417Z,1025.25
2018-12-24T12:05:20.424Z,1025.30